< < Back
Terminal Aerodrome Forecast


Current Version              Previous Versions:   1  2  3  4  5  6  7  8  9  

Terminal Aerodrome Forecast

666
FTUS42 KFFC 271122
TAFFTY
TAF
KFTY 271122Z 2712/2812 23003KT P6SM SCT015
      TEMPO 2712/2713 BKN008
     FM271500 23007KT P6SM SCT040
     FM271800 23008KT P6SM SCT060 BKN120
     FM280200 23005KT P6SM SCT250=

Latest METAR

560
SAUS70 KWBC 271100 RRI
MTRFTY
METAR KFTY 271053Z 24005KT 10SM BKN009 OVC013 24/22 A3006 RMK AO2 CIG
008V011 SLP169 T02440217


USA.gov is the U.S. government's official web portal to all federal, state and local government web resources and services.